sensor_id;sensor_type;location;lat;lon;timestamp;temperature;humidity
10873;DHT22;34586;53.616;10.032;2022-11-21T00:00:18;0.20;99.90
10873;DHT22;34586;53.616;10.032;2022-11-21T00:02:44;0.30;99.90
10873;DHT22;34586;53.616;10.032;2022-11-21T00:05:10;0.30;99.90
10873;DHT22;34586;53.616;10.032;2022-11-21T00:07:35;0.30;99.90
10873;DHT22;34586;53.616;10.032;2022-11-21T00:10:02;0.30;99.90
10873;DHT22;34586;53.616;10.032;2022-11-21T00:12:28;0.30;99.90
10873;DHT22;34586;53.616;10.032;2022-11-21T00:14:54;0.30;99.90
10873;DHT22;34586;53.616;10.032;2022-11-21T00:17:19;0.30;99.90
10873;DHT22;34586;53.616;10.032;2022-11-21T00:19:45;0.30;99.90
10873;DHT22;34586;53.616;10.032;2022-11-21T00:22:10;0.30;99.90
10873;DHT22;34586;53.616;10.032;2022-11-21T00:24:36;0.30;99.90
10873;DHT22;34586;53.616;10.032;2022-11-21T00:27:02;0.30;99.90
10873;DHT22;34586;53.616;10.032;2022-11-21T00:29:27;0.20;99.90
10873;DHT22;34586;53.616;10.032;2022-11-21T00:31:53;0.20;99.90
10873;DHT22;34586;53.616;10.032;2022-11-21T00:34:19;0.20;99.90
10873;DHT22;34586;53.616;10.032;2022-11-21T00:36:46;0.10;99.90
10873;DHT22;34586;53.616;10.032;2022-11-21T00:39:11;0.20;99.90
10873;DHT22;34586;53.616;10.032;2022-11-21T00:41:37;0.30;99.90
10873;DHT22;34586;53.616;10.032;2022-11-21T00:44:04;0.00;99.90
10873;DHT22;34586;53.616;10.032;2022-11-21T00:46:30;0.00;99.90
10873;DHT22;34586;53.616;10.032;2022-11-21T00:48:57;0.00;99.90
10873;DHT22;34586;53.616;10.032;2022-11-21T00:51:24;0.00;99.90
10873;DHT22;34586;53.616;10.032;2022-11-21T00:53:51;0.10;99.90
10873;DHT22;34586;53.616;10.032;2022-11-21T00:56:17;0.10;99.90
10873;DHT22;34586;53.616;10.032;2022-11-21T00:58:42;0.10;99.90
10873;DHT22;34586;53.616;10.032;2022-11-21T01:01:10;0.10;99.90
10873;DHT22;34586;53.616;10.032;2022-11-21T01:03:36;0.10;99.90
10873;DHT22;34586;53.616;10.032;2022-11-21T01:06:06;0.00;99.90
10873;DHT22;34586;53.616;10.032;2022-11-21T01:08:34;0.00;99.90
10873;DHT22;34586;53.616;10.032;2022-11-21T01:11:04;0.00;99.90
10873;DHT22;34586;53.616;10.032;2022-11-21T01:13:31;0.00;99.90
10873;DHT22;34586;53.616;10.032;2022-11-21T01:16:04;0.00;99.90
10873;DHT22;34586;53.616;10.032;2022-11-21T01:18:32;-0.10;99.90
10873;DHT22;34586;53.616;10.032;2022-11-21T01:21:00;-0.10;99.90
10873;DHT22;34586;53.616;10.032;2022-11-21T01:23:26;-0.10;99.90
10873;DHT22;34586;53.616;10.032;2022-11-21T01:25:52;-0.10;99.90
10873;DHT22;34586;53.616;10.032;2022-11-21T01:28:18;-0.20;99.90
10873;DHT22;34586;53.616;10.032;2022-11-21T01:30:44;-0.10;99.90
10873;DHT22;34586;53.616;10.032;2022-11-21T01:33:09;-0.10;99.90
10873;DHT22;34586;53.616;10.032;2022-11-21T01:35:35;0.00;99.90
10873;DHT22;34586;53.616;10.032;2022-11-21T01:38:00;0.00;99.90
10873;DHT22;34586;53.616;10.032;2022-11-21T01:40:26;0.00;99.90
10873;DHT22;34586;53.616;10.032;2022-11-21T01:43:02;0.00;99.90
10873;DHT22;34586;53.616;10.032;2022-11-21T01:45:53;0.00;99.90
10873;DHT22;34586;53.616;10.032;2022-11-21T01:48:30;0.00;99.90
10873;DHT22;34586;53.616;10.032;2022-11-21T01:54:00;0.10;99.90
10873;DHT22;34586;53.616;10.032;2022-11-21T01:56:29;0.10;99.90
10873;DHT22;34586;53.616;10.032;2022-11-21T01:58:59;0.10;99.90
10873;DHT22;34586;53.616;10.032;2022-11-21T02:01:26;0.10;99.90
10873;DHT22;34586;53.616;10.032;2022-11-21T02:03:54;0.20;99.90
10873;DHT22;34586;53.616;10.032;2022-11-21T02:06:22;0.20;88.80
10873;DHT22;34586;53.616;10.032;2022-11-21T02:08:48;0.20;99.90
10873;DHT22;34586;53.616;10.032;2022-11-21T02:11:29;0.10;98.50
10873;DHT22;34586;53.616;10.032;2022-11-21T02:13:59;0.00;98.10
10873;DHT22;34586;53.616;10.032;2022-11-21T02:16:25;0.00;97.30
10873;DHT22;34586;53.616;10.032;2022-11-21T02:18:53;0.10;99.90
10873;DHT22;34586;53.616;10.032;2022-11-21T02:26:31;0.10;99.90
10873;DHT22;34586;53.616;10.032;2022-11-21T02:28:58;0.10;99.90
10873;DHT22;34586;53.616;10.032;2022-11-21T02:31:24;0.10;99.90
10873;DHT22;34586;53.616;10.032;2022-11-21T02:33:49;-0.10;99.90
10873;DHT22;34586;53.616;10.032;2022-11-21T02:36:36;0.00;99.90
10873;DHT22;34586;53.616;10.032;2022-11-21T02:39:04;0.00;99.90
10873;DHT22;34586;53.616;10.032;2022-11-21T02:41:33;0.00;99.90
10873;DHT22;34586;53.616;10.032;2022-11-21T02:44:21;0.00;99.90
10873;DHT22;34586;53.616;10.032;2022-11-21T02:46:51;0.00;99.90
10873;DHT22;34586;53.616;10.032;2022-11-21T02:49:23;0.00;99.40
10873;DHT22;34586;53.616;10.032;2022-11-21T02:51:52;-0.10;99.90
10873;DHT22;34586;53.616;10.032;2022-11-21T02:54:17;-0.10;94.20
10873;DHT22;34586;53.616;10.032;2022-11-21T02:56:43;-0.10;99.90
10873;DHT22;34586;53.616;10.032;2022-11-21T02:59:09;-0.10;99.90
10873;DHT22;34586;53.616;10.032;2022-11-21T03:01:34;-0.10;99.90
10873;DHT22;34586;53.616;10.032;2022-11-21T03:04:01;0.00;99.90
10873;DHT22;34586;53.616;10.032;2022-11-21T03:06:27;-0.10;93.40
10873;DHT22;34586;53.616;10.032;2022-11-21T03:08:52;-0.10;96.60
10873;DHT22;34586;53.616;10.032;2022-11-21T03:11:18;-0.20;76.90
10873;DHT22;34586;53.616;10.032;2022-11-21T03:13:43;-0.20;99.90
10873;DHT22;34586;53.616;10.032;2022-11-21T03:16:10;-0.30;96.30
10873;DHT22;34586;53.616;10.032;2022-11-21T03:18:36;-0.30;99.90
10873;DHT22;34586;53.616;10.032;2022-11-21T03:21:02;-0.30;99.90
10873;DHT22;34586;53.616;10.032;2022-11-21T03:23:28;-0.30;97.60
10873;DHT22;34586;53.616;10.032;2022-11-21T03:25:54;-0.30;99.90
10873;DHT22;34586;53.616;10.032;2022-11-21T03:28:19;-0.30;97.70
10873;DHT22;34586;53.616;10.032;2022-11-21T03:30:46;-0.30;99.90
10873;DHT22;34586;53.616;10.032;2022-11-21T03:33:12;-0.40;98.70
10873;DHT22;34586;53.616;10.032;2022-11-21T03:35:39;-0.30;99.90
10873;DHT22;34586;53.616;10.032;2022-11-21T03:38:04;-0.30;99.90
10873;DHT22;34586;53.616;10.032;2022-11-21T03:40:30;-0.30;92.80
10873;DHT22;34586;53.616;10.032;2022-11-21T03:42:56;-0.30;99.90
10873;DHT22;34586;53.616;10.032;2022-11-21T03:45:21;-0.20;99.90
10873;DHT22;34586;53.616;10.032;2022-11-21T03:47:47;-0.30;98.00
10873;DHT22;34586;53.616;10.032;2022-11-21T03:50:14;-0.20;92.00
10873;DHT22;34586;53.616;10.032;2022-11-21T03:52:43;-0.30;95.20
10873;DHT22;34586;53.616;10.032;2022-11-21T03:55:08;-0.30;91.80
10873;DHT22;34586;53.616;10.032;2022-11-21T03:57:35;-0.30;99.90
10873;DHT22;34586;53.616;10.032;2022-11-21T04:00:01;-0.20;97.30
10873;DHT22;34586;53.616;10.032;2022-11-21T04:02:27;-0.30;92.60
10873;DHT22;34586;53.616;10.032;2022-11-21T04:04:53;-0.30;95.20
10873;DHT22;34586;53.616;10.032;2022-11-21T04:07:19;-0.20;97.00
10873;DHT22;34586;53.616;10.032;2022-11-21T04:09:44;-0.30;85.90
10873;DHT22;34586;53.616;10.032;2022-11-21T04:12:10;-0.30;95.00
10873;DHT22;34586;53.616;10.032;2022-11-21T04:14:35;-0.30;93.10
10873;DHT22;34586;53.616;10.032;2022-11-21T04:17:02;-0.40;70.10
10873;DHT22;34586;53.616;10.032;2022-11-21T04:19:28;-0.40;67.40
10873;DHT22;34586;53.616;10.032;2022-11-21T04:21:55;-0.40;69.40
10873;DHT22;34586;53.616;10.032;2022-11-21T04:24:20;-0.50;73.50
10873;DHT22;34586;53.616;10.032;2022-11-21T04:26:47;-0.40;76.50
10873;DHT22;34586;53.616;10.032;2022-11-21T04:29:13;-0.60;90.70
10873;DHT22;34586;53.616;10.032;2022-11-21T04:31:38;-0.60;94.30
10873;DHT22;34586;53.616;10.032;2022-11-21T04:34:04;-0.60;92.10
10873;DHT22;34586;53.616;10.032;2022-11-21T04:36:29;-0.70;73.60
10873;DHT22;34586;53.616;10.032;2022-11-21T04:38:55;-0.80;90.00
10873;DHT22;34586;53.616;10.032;2022-11-21T04:41:21;-0.80;91.50
10873;DHT22;34586;53.616;10.032;2022-11-21T04:43:47;-0.80;86.00
10873;DHT22;34586;53.616;10.032;2022-11-21T04:46:12;-0.80;93.80
10873;DHT22;34586;53.616;10.032;2022-11-21T04:48:39;-0.80;97.30
10873;DHT22;34586;53.616;10.032;2022-11-21T04:51:05;-0.90;92.00
10873;DHT22;34586;53.616;10.032;2022-11-21T04:53:30;-0.80;99.90
10873;DHT22;34586;53.616;10.032;2022-11-21T04:55:56;-0.70;99.90
10873;DHT22;34586;53.616;10.032;2022-11-21T04:58:22;-0.70;96.90
10873;DHT22;34586;53.616;10.032;2022-11-21T05:00:47;-0.70;97.10
10873;DHT22;34586;53.616;10.032;2022-11-21T05:03:13;-0.80;99.90
10873;DHT22;34586;53.616;10.032;2022-11-21T05:05:38;-0.70;99.90
10873;DHT22;34586;53.616;10.032;2022-11-21T05:08:04;-0.70;99.90
10873;DHT22;34586;53.616;10.032;2022-11-21T05:10:30;-0.70;99.90
10873;DHT22;34586;53.616;10.032;2022-11-21T05:12:59;-0.70;99.90
10873;DHT22;34586;53.616;10.032;2022-11-21T05:15:44;-0.70;99.90
10873;DHT22;34586;53.616;10.032;2022-11-21T05:18:10;-0.70;99.90
10873;DHT22;34586;53.616;10.032;2022-11-21T05:20:35;-0.80;91.70
10873;DHT22;34586;53.616;10.032;2022-11-21T05:23:01;-0.90;85.20
10873;DHT22;34586;53.616;10.032;2022-11-21T05:25:27;-0.90;97.60
10873;DHT22;34586;53.616;10.032;2022-11-21T05:27:56;-0.90;99.90
10873;DHT22;34586;53.616;10.032;2022-11-21T05:30:21;-1.00;99.80
10873;DHT22;34586;53.616;10.032;2022-11-21T05:32:47;-1.00;99.90
10873;DHT22;34586;53.616;10.032;2022-11-21T05:35:13;-0.90;99.90
10873;DHT22;34586;53.616;10.032;2022-11-21T05:37:38;-0.90;99.90
10873;DHT22;34586;53.616;10.032;2022-11-21T05:40:05;-1.00;97.40
10873;DHT22;34586;53.616;10.032;2022-11-21T05:42:30;-1.00;97.90
10873;DHT22;34586;53.616;10.032;2022-11-21T05:45:14;-1.00;97.50
10873;DHT22;34586;53.616;10.032;2022-11-21T05:47:41;-1.00;99.90
10873;DHT22;34586;53.616;10.032;2022-11-21T05:50:07;-1.00;99.90
10873;DHT22;34586;53.616;10.032;2022-11-21T05:52:33;-1.00;99.90
10873;DHT22;34586;53.616;10.032;2022-11-21T05:54:58;-1.00;99.90
10873;DHT22;34586;53.616;10.032;2022-11-21T05:57:24;-1.00;99.60
10873;DHT22;34586;53.616;10.032;2022-11-21T05:59:50;-1.00;99.90
10873;DHT22;34586;53.616;10.032;2022-11-21T06:02:15;-0.90;99.90
10873;DHT22;34586;53.616;10.032;2022-11-21T06:04:59;-0.90;99.90
10873;DHT22;34586;53.616;10.032;2022-11-21T06:07:25;-0.90;99.90
10873;DHT22;34586;53.616;10.032;2022-11-21T06:09:51;-0.80;99.90
10873;DHT22;34586;53.616;10.032;2022-11-21T06:12:17;-0.80;99.90
10873;DHT22;34586;53.616;10.032;2022-11-21T06:14:42;-0.70;99.90
10873;DHT22;34586;53.616;10.032;2022-11-21T06:17:08;-0.70;99.90
10873;DHT22;34586;53.616;10.032;2022-11-21T06:19:34;-0.60;99.90
10873;DHT22;34586;53.616;10.032;2022-11-21T06:22:00;-0.60;99.90
10873;DHT22;34586;53.616;10.032;2022-11-21T06:24:25;-0.60;99.90
10873;DHT22;34586;53.616;10.032;2022-11-21T06:26:51;-0.60;99.90
10873;DHT22;34586;53.616;10.032;2022-11-21T06:29:17;-0.50;99.90
10873;DHT22;34586;53.616;10.032;2022-11-21T06:31:46;-0.50;99.90
10873;DHT22;34586;53.616;10.032;2022-11-21T06:34:12;-0.50;99.90
10873;DHT22;34586;53.616;10.032;2022-11-21T06:36:38;-0.50;99.90
10873;DHT22;34586;53.616;10.032;2022-11-21T06:39:04;-0.50;99.90
10873;DHT22;34586;53.616;10.032;2022-11-21T06:41:30;-0.50;99.90
10873;DHT22;34586;53.616;10.032;2022-11-21T06:43:58;-0.50;99.90
10873;DHT22;34586;53.616;10.032;2022-11-21T06:46:25;-0.50;99.90
10873;DHT22;34586;53.616;10.032;2022-11-21T06:48:50;-0.40;99.90
10873;DHT22;34586;53.616;10.032;2022-11-21T06:51:22;-0.40;99.90
10873;DHT22;34586;53.616;10.032;2022-11-21T06:53:54;-0.50;99.90
10873;DHT22;34586;53.616;10.032;2022-11-21T06:56:24;-0.50;99.90
10873;DHT22;34586;53.616;10.032;2022-11-21T06:58:51;-0.50;99.90
10873;DHT22;34586;53.616;10.032;2022-11-21T07:01:17;-0.50;99.90
10873;DHT22;34586;53.616;10.032;2022-11-21T07:03:43;-0.50;99.90
10873;DHT22;34586;53.616;10.032;2022-11-21T07:06:09;-0.50;99.90
10873;DHT22;34586;53.616;10.032;2022-11-21T07:08:36;-0.60;99.90
10873;DHT22;34586;53.616;10.032;2022-11-21T07:11:07;-0.60;99.90
10873;DHT22;34586;53.616;10.032;2022-11-21T07:13:33;-0.50;99.90
10873;DHT22;34586;53.616;10.032;2022-11-21T07:16:07;-0.50;99.90
10873;DHT22;34586;53.616;10.032;2022-11-21T07:18:33;-0.50;99.90
10873;DHT22;34586;53.616;10.032;2022-11-21T07:21:00;-0.50;99.90
10873;DHT22;34586;53.616;10.032;2022-11-21T07:23:26;-0.50;99.90
10873;DHT22;34586;53.616;10.032;2022-11-21T07:25:51;-0.50;99.90
10873;DHT22;34586;53.616;10.032;2022-11-21T07:28:17;-0.60;99.90
10873;DHT22;34586;53.616;10.032;2022-11-21T07:30:43;-0.60;99.90
10873;DHT22;34586;53.616;10.032;2022-11-21T07:33:08;-0.60;99.90
10873;DHT22;34586;53.616;10.032;2022-11-21T07:35:35;-0.60;99.90
10873;DHT22;34586;53.616;10.032;2022-11-21T07:38:01;-0.60;99.90
10873;DHT22;34586;53.616;10.032;2022-11-21T07:40:27;-0.50;99.90
10873;DHT22;34586;53.616;10.032;2022-11-21T07:42:53;-0.60;99.90
10873;DHT22;34586;53.616;10.032;2022-11-21T07:45:19;-0.60;99.90
10873;DHT22;34586;53.616;10.032;2022-11-21T07:47:46;-0.60;99.90
10873;DHT22;34586;53.616;10.032;2022-11-21T07:50:12;-0.50;99.90
10873;DHT22;34586;53.616;10.032;2022-11-21T07:52:38;-0.50;99.90
10873;DHT22;34586;53.616;10.032;2022-11-21T07:55:04;-0.50;99.90
10873;DHT22;34586;53.616;10.032;2022-11-21T07:57:30;-0.50;99.90
10873;DHT22;34586;53.616;10.032;2022-11-21T07:59:56;-0.50;99.90
10873;DHT22;34586;53.616;10.032;2022-11-21T08:02:26;-0.50;99.90
10873;DHT22;34586;53.616;10.032;2022-11-21T08:04:52;-0.50;99.90
10873;DHT22;34586;53.616;10.032;2022-11-21T08:07:19;-0.50;99.90
10873;DHT22;34586;53.616;10.032;2022-11-21T08:09:45;-0.50;99.90
10873;DHT22;34586;53.616;10.032;2022-11-21T08:12:11;-0.50;99.90
10873;DHT22;34586;53.616;10.032;2022-11-21T08:14:37;-0.40;99.90
10873;DHT22;34586;53.616;10.032;2022-11-21T08:17:04;-0.30;99.90
10873;DHT22;34586;53.616;10.032;2022-11-21T08:19:30;-0.30;99.90
10873;DHT22;34586;53.616;10.032;2022-11-21T08:21:56;-0.30;99.90
10873;DHT22;34586;53.616;10.032;2022-11-21T08:24:22;-0.30;99.90
10873;DHT22;34586;53.616;10.032;2022-11-21T08:26:48;-0.20;99.90
10873;DHT22;34586;53.616;10.032;2022-11-21T08:29:14;-0.20;99.90
10873;DHT22;34586;53.616;10.032;2022-11-21T08:31:40;-0.10;99.90
10873;DHT22;34586;53.616;10.032;2022-11-21T08:34:06;-0.10;99.90
10873;DHT22;34586;53.616;10.032;2022-11-21T08:36:32;0.00;99.90
10873;DHT22;34586;53.616;10.032;2022-11-21T08:38:58;0.10;99.90
10873;DHT22;34586;53.616;10.032;2022-11-21T08:41:24;0.20;99.90
10873;DHT22;34586;53.616;10.032;2022-11-21T08:44:08;0.30;99.90
10873;DHT22;34586;53.616;10.032;2022-11-21T08:46:34;0.50;98.00
10873;DHT22;34586;53.616;10.032;2022-11-21T08:49:05;0.50;68.40
10873;DHT22;34586;53.616;10.032;2022-11-21T08:51:31;0.50;74.50
10873;DHT22;34586;53.616;10.032;2022-11-21T08:53:57;0.60;1.50
10873;DHT22;34586;53.616;10.032;2022-11-21T08:56:22;0.70;18.70
10873;DHT22;34586;53.616;10.032;2022-11-21T08:58:48;0.80;1.00
10873;DHT22;34586;53.616;10.032;2022-11-21T09:01:14;0.80;9.90
10873;DHT22;34586;53.616;10.032;2022-11-21T09:03:40;0.80;17.50
10873;DHT22;34586;53.616;10.032;2022-11-21T09:06:07;0.90;28.10
10873;DHT22;34586;53.616;10.032;2022-11-21T09:08:32;0.90;1.00
10873;DHT22;34586;53.616;10.032;2022-11-21T09:11:06;0.90;1.00
10873;DHT22;34586;53.616;10.032;2022-11-21T09:13:33;0.90;3.50
10873;DHT22;34586;53.616;10.032;2022-11-21T09:15:59;0.90;1.00
10873;DHT22;34586;53.616;10.032;2022-11-21T09:18:43;0.90;1.00
10873;DHT22;34586;53.616;10.032;2022-11-21T09:21:14;1.00;1.00
10873;DHT22;34586;53.616;10.032;2022-11-21T09:23:40;1.10;1.00
10873;DHT22;34586;53.616;10.032;2022-11-21T09:26:05;1.20;1.00
10873;DHT22;34586;53.616;10.032;2022-11-21T09:28:31;1.20;1.00
10873;DHT22;34586;53.616;10.032;2022-11-21T09:30:57;1.40;1.00
10873;DHT22;34586;53.616;10.032;2022-11-21T09:33:22;1.50;1.00
10873;DHT22;34586;53.616;10.032;2022-11-21T09:35:48;1.60;1.00
10873;DHT22;34586;53.616;10.032;2022-11-21T09:38:15;1.70;1.00
10873;DHT22;34586;53.616;10.032;2022-11-21T09:40:43;1.90;1.00
10873;DHT22;34586;53.616;10.032;2022-11-21T09:43:32;1.90;1.00
10873;DHT22;34586;53.616;10.032;2022-11-21T09:46:14;2.10;1.00
10873;DHT22;34586;53.616;10.032;2022-11-21T09:48:59;2.10;1.00
10873;DHT22;34586;53.616;10.032;2022-11-21T09:51:29;2.30;1.00
10873;DHT22;34586;53.616;10.032;2022-11-21T09:54:24;2.40;1.00
10873;DHT22;34586;53.616;10.032;2022-11-21T09:56:53;2.40;99.90
10873;DHT22;34586;53.616;10.032;2022-11-21T09:59:36;2.40;99.90
10873;DHT22;34586;53.616;10.032;2022-11-21T10:02:17;2.40;1.00
10873;DHT22;34586;53.616;10.032;2022-11-21T10:04:45;2.40;99.90
10873;DHT22;34586;53.616;10.032;2022-11-21T10:12:39;2.30;22.30
10873;DHT22;34586;53.616;10.032;2022-11-21T10:26:48;2.10;99.90
10873;DHT22;34586;53.616;10.032;2022-11-21T10:29:30;2.20;99.90
10873;DHT22;34586;53.616;10.032;2022-11-21T10:32:02;2.20;99.90
10873;DHT22;34586;53.616;10.032;2022-11-21T10:34:34;2.20;1.00
10873;DHT22;34586;53.616;10.032;2022-11-21T10:37:44;2.10;28.00
10873;DHT22;34586;53.616;10.032;2022-11-21T10:42:59;2.00;99.90
10873;DHT22;34586;53.616;10.032;2022-11-21T10:46:00;1.90;96.00
10873;DHT22;34586;53.616;10.032;2022-11-21T10:48:26;2.10;99.90
10873;DHT22;34586;53.616;10.032;2022-11-21T10:53:39;1.90;52.20
10873;DHT22;34586;53.616;10.032;2022-11-21T10:56:25;2.00;99.90
10873;DHT22;34586;53.616;10.032;2022-11-21T10:58:57;2.00;99.90
10873;DHT22;34586;53.616;10.032;2022-11-21T11:01:31;2.10;98.70
10873;DHT22;34586;53.616;10.032;2022-11-21T11:06:37;2.20;1.00
10873;DHT22;34586;53.616;10.032;2022-11-21T11:09:03;2.20;99.90
10873;DHT22;34586;53.616;10.032;2022-11-21T11:11:29;2.20;99.90
10873;DHT22;34586;53.616;10.032;2022-11-21T11:14:05;2.30;99.90
10873;DHT22;34586;53.616;10.032;2022-11-21T11:16:44;2.40;1.00
10873;DHT22;34586;53.616;10.032;2022-11-21T11:29:21;3.30;1.00
10873;DHT22;34586;53.616;10.032;2022-11-21T11:32:04;3.40;1.00
10873;DHT22;34586;53.616;10.032;2022-11-21T11:34:40;3.60;99.90
10873;DHT22;34586;53.616;10.032;2022-11-21T11:37:20;3.80;1.00
10873;DHT22;34586;53.616;10.032;2022-11-21T11:46:25;3.80;1.00
10873;DHT22;34586;53.616;10.032;2022-11-21T11:49:31;3.80;99.90
10873;DHT22;34586;53.616;10.032;2022-11-21T11:52:21;4.00;1.00
10873;DHT22;34586;53.616;10.032;2022-11-21T11:54:54;4.10;1.00
10873;DHT22;34586;53.616;10.032;2022-11-21T11:57:22;4.30;1.00
10873;DHT22;34586;53.616;10.032;2022-11-21T11:59:57;4.30;1.00
10873;DHT22;34586;53.616;10.032;2022-11-21T12:05:26;4.60;1.00
10873;DHT22;34586;53.616;10.032;2022-11-21T12:08:29;4.70;1.00
10873;DHT22;34586;53.616;10.032;2022-11-21T12:11:02;4.90;1.00
10873;DHT22;34586;53.616;10.032;2022-11-21T12:13:49;4.90;1.00
10873;DHT22;34586;53.616;10.032;2022-11-21T12:16:18;4.80;1.00
10873;DHT22;34586;53.616;10.032;2022-11-21T12:19:10;4.90;52.60
10873;DHT22;34586;53.616;10.032;2022-11-21T12:21:33;5.00;1.00
10873;DHT22;34586;53.616;10.032;2022-11-21T12:24:03;5.00;99.90
10873;DHT22;34586;53.616;10.032;2022-11-21T12:27:02;5.00;99.90
10873;DHT22;34586;53.616;10.032;2022-11-21T12:30:45;5.00;1.00
10873;DHT22;34586;53.616;10.032;2022-11-21T12:38:33;5.20;1.00
10873;DHT22;34586;53.616;10.032;2022-11-21T12:53:16;5.60;99.90
10873;DHT22;34586;53.616;10.032;2022-11-21T12:56:21;5.70;90.40
10873;DHT22;34586;53.616;10.032;2022-11-21T12:58:50;5.50;1.00
10873;DHT22;34586;53.616;10.032;2022-11-21T13:01:33;5.40;99.90
10873;DHT22;34586;53.616;10.032;2022-11-21T13:04:07;5.40;99.90
10873;DHT22;34586;53.616;10.032;2022-11-21T13:06:39;5.20;99.90
10873;DHT22;34586;53.616;10.032;2022-11-21T13:09:14;5.10;1.00
10873;DHT22;34586;53.616;10.032;2022-11-21T13:12:04;4.90;99.90
10873;DHT22;34586;53.616;10.032;2022-11-21T13:15:12;4.80;99.90
10873;DHT22;34586;53.616;10.032;2022-11-21T13:17:40;4.70;99.90
10873;DHT22;34586;53.616;10.032;2022-11-21T13:20:26;4.60;1.00
10873;DHT22;34586;53.616;10.032;2022-11-21T13:22:58;4.60;32.50
10873;DHT22;34586;53.616;10.032;2022-11-21T13:28:22;4.60;1.00
10873;DHT22;34586;53.616;10.032;2022-11-21T13:30:57;4.60;1.00
10873;DHT22;34586;53.616;10.032;2022-11-21T13:36:13;4.40;1.00
10873;DHT22;34586;53.616;10.032;2022-11-21T13:49:48;4.10;1.00
10873;DHT22;34586;53.616;10.032;2022-11-21T14:08:26;3.60;38.60
10873;DHT22;34586;53.616;10.032;2022-11-21T14:10:54;3.40;26.50
10873;DHT22;34586;53.616;10.032;2022-11-21T14:13:26;3.30;1.00
10873;DHT22;34586;53.616;10.032;2022-11-21T14:18:44;3.20;99.90
10873;DHT22;34586;53.616;10.032;2022-11-21T14:21:23;3.20;1.00
10873;DHT22;34586;53.616;10.032;2022-11-21T14:23:55;3.10;99.90
10873;DHT22;34586;53.616;10.032;2022-11-21T14:26:24;3.10;1.00
10873;DHT22;34586;53.616;10.032;2022-11-21T14:28:51;3.00;1.00
10873;DHT22;34586;53.616;10.032;2022-11-21T14:31:17;3.00;1.00
10873;DHT22;34586;53.616;10.032;2022-11-21T14:33:43;3.10;99.90
10873;DHT22;34586;53.616;10.032;2022-11-21T14:36:25;2.90;99.90
10873;DHT22;34586;53.616;10.032;2022-11-21T14:38:59;2.90;99.90
10873;DHT22;34586;53.616;10.032;2022-11-21T14:41:28;2.90;99.90
10873;DHT22;34586;53.616;10.032;2022-11-21T14:48:52;2.70;99.90
10873;DHT22;34586;53.616;10.032;2022-11-21T14:51:22;2.70;99.90
10873;DHT22;34586;53.616;10.032;2022-11-21T14:53:50;2.60;70.00
10873;DHT22;34586;53.616;10.032;2022-11-21T14:56:25;2.60;99.90
10873;DHT22;34586;53.616;10.032;2022-11-21T14:58:52;2.50;99.90
10873;DHT22;34586;53.616;10.032;2022-11-21T15:01:20;2.50;88.90
10873;DHT22;34586;53.616;10.032;2022-11-21T15:04:01;2.50;99.90
10873;DHT22;34586;53.616;10.032;2022-11-21T15:06:28;2.40;99.90
10873;DHT22;34586;53.616;10.032;2022-11-21T15:09:00;2.40;1.00
10873;DHT22;34586;53.616;10.032;2022-11-21T15:11:39;2.30;1.00
10873;DHT22;34586;53.616;10.032;2022-11-21T15:16:41;2.20;99.90
10873;DHT22;34586;53.616;10.032;2022-11-21T15:19:10;2.20;99.90
10873;DHT22;34586;53.616;10.032;2022-11-21T15:21:35;2.10;99.90
10873;DHT22;34586;53.616;10.032;2022-11-21T15:26:54;2.10;99.90
10873;DHT22;34586;53.616;10.032;2022-11-21T15:29:20;2.00;99.90
10873;DHT22;34586;53.616;10.032;2022-11-21T15:32:08;2.00;99.90
10873;DHT22;34586;53.616;10.032;2022-11-21T15:34:34;2.00;99.90
10873;DHT22;34586;53.616;10.032;2022-11-21T15:37:01;2.00;99.90
10873;DHT22;34586;53.616;10.032;2022-11-21T15:39:28;1.90;99.90
10873;DHT22;34586;53.616;10.032;2022-11-21T15:41:54;1.90;99.90
10873;DHT22;34586;53.616;10.032;2022-11-21T15:44:21;1.90;1.00
10873;DHT22;34586;53.616;10.032;2022-11-21T15:46:50;1.90;1.00
10873;DHT22;34586;53.616;10.032;2022-11-21T15:49:16;1.80;99.90
10873;DHT22;34586;53.616;10.032;2022-11-21T15:51:44;1.80;1.00
10873;DHT22;34586;53.616;10.032;2022-11-21T15:54:15;1.80;1.00
10873;DHT22;34586;53.616;10.032;2022-11-21T15:56:41;1.70;1.00
10873;DHT22;34586;53.616;10.032;2022-11-21T15:59:07;1.60;1.00
10873;DHT22;34586;53.616;10.032;2022-11-21T16:01:33;1.60;1.00
10873;DHT22;34586;53.616;10.032;2022-11-21T16:04:02;1.60;1.00
10873;DHT22;34586;53.616;10.032;2022-11-21T16:06:29;1.60;1.00
10873;DHT22;34586;53.616;10.032;2022-11-21T16:09:00;1.50;1.00
10873;DHT22;34586;53.616;10.032;2022-11-21T16:11:34;1.50;1.00
10873;DHT22;34586;53.616;10.032;2022-11-21T16:14:11;1.30;1.00
10873;DHT22;34586;53.616;10.032;2022-11-21T16:16:39;1.40;1.00
10873;DHT22;34586;53.616;10.032;2022-11-21T16:19:05;2.10;1.00
10873;DHT22;34586;53.616;10.032;2022-11-21T16:21:31;1.40;1.00
10873;DHT22;34586;53.616;10.032;2022-11-21T16:23:56;1.30;1.00
10873;DHT22;34586;53.616;10.032;2022-11-21T16:26:22;1.30;1.00
10873;DHT22;34586;53.616;10.032;2022-11-21T16:28:56;1.30;1.00
10873;DHT22;34586;53.616;10.032;2022-11-21T16:31:26;1.30;1.00
10873;DHT22;34586;53.616;10.032;2022-11-21T16:33:52;1.30;1.00
10873;DHT22;34586;53.616;10.032;2022-11-21T16:36:20;1.30;1.00
10873;DHT22;34586;53.616;10.032;2022-11-21T16:38:46;1.30;1.00
10873;DHT22;34586;53.616;10.032;2022-11-21T16:41:12;1.30;1.00
10873;DHT22;34586;53.616;10.032;2022-11-21T16:43:45;1.50;1.00
10873;DHT22;34586;53.616;10.032;2022-11-21T16:46:11;1.20;1.00
10873;DHT22;34586;53.616;10.032;2022-11-21T16:48:37;1.20;1.00
10873;DHT22;34586;53.616;10.032;2022-11-21T16:51:19;1.20;1.00
10873;DHT22;34586;53.616;10.032;2022-11-21T16:53:48;1.20;1.00
10873;DHT22;34586;53.616;10.032;2022-11-21T16:56:14;1.20;1.00
10873;DHT22;34586;53.616;10.032;2022-11-21T16:58:40;1.10;1.00
10873;DHT22;34586;53.616;10.032;2022-11-21T17:01:15;1.00;1.00
10873;DHT22;34586;53.616;10.032;2022-11-21T17:03:42;1.00;1.00
10873;DHT22;34586;53.616;10.032;2022-11-21T17:06:09;1.00;1.00
10873;DHT22;34586;53.616;10.032;2022-11-21T17:08:36;1.00;1.00
10873;DHT22;34586;53.616;10.032;2022-11-21T17:13:41;1.00;1.00
10873;DHT22;34586;53.616;10.032;2022-11-21T17:16:09;1.00;1.00
10873;DHT22;34586;53.616;10.032;2022-11-21T17:18:35;0.90;1.00
10873;DHT22;34586;53.616;10.032;2022-11-21T17:21:09;0.90;1.00
10873;DHT22;34586;53.616;10.032;2022-11-21T17:23:37;0.80;1.00
10873;DHT22;34586;53.616;10.032;2022-11-21T17:26:09;0.80;1.00
10873;DHT22;34586;53.616;10.032;2022-11-21T17:28:35;0.90;1.00
10873;DHT22;34586;53.616;10.032;2022-11-21T17:31:11;0.80;1.00
10873;DHT22;34586;53.616;10.032;2022-11-21T17:33:38;0.80;1.00
10873;DHT22;34586;53.616;10.032;2022-11-21T17:36:06;0.80;1.00
10873;DHT22;34586;53.616;10.032;2022-11-21T17:38:32;0.80;1.00
10873;DHT22;34586;53.616;10.032;2022-11-21T17:40:59;0.80;1.00
10873;DHT22;34586;53.616;10.032;2022-11-21T17:43:25;0.80;1.00